createdAt,value
2023-04-11T05:32:00.845Z,8.30
2023-04-11T05:35:02.845Z,8.30
2023-04-11T05:38:04.787Z,8.30
2023-04-11T05:41:07.538Z,8.40
2023-04-11T05:44:09.151Z,8.40
2023-04-11T05:47:13.980Z,8.40
2023-04-11T05:50:17.140Z,8.50
2023-04-11T05:53:18.909Z,8.50
2023-04-11T05:56:20.664Z,8.50
2023-04-11T05:59:27.020Z,8.50
2023-04-11T06:02:30.332Z,8.50
2023-04-11T06:05:32.976Z,8.60
2023-04-11T06:08:34.734Z,8.70
2023-04-11T06:11:36.477Z,8.60
2023-04-11T06:49:12.489Z,8.30
2023-04-11T06:52:14.412Z,8.50
2023-04-11T06:55:16.181Z,8.80
2023-04-11T06:58:17.876Z,9.10
2023-04-11T07:01:25.255Z,9.40
2023-04-11T07:04:27.338Z,9.60
2023-04-11T07:07:29.001Z,9.50
2023-04-11T07:10:30.670Z,9.40
2023-04-11T07:13:32.253Z,9.90
2023-04-11T07:16:34.290Z,10.80
2023-04-11T07:19:35.946Z,11.60
2023-04-11T07:22:37.687Z,12.00
2023-04-11T07:25:40.455Z,12.20
2023-04-11T07:28:44.084Z,12.30
2023-04-11T07:31:45.826Z,13.10
2023-04-11T07:34:47.519Z,14.10
2023-04-11T07:37:49.163Z,14.40
2023-04-11T07:40:51.316Z,15.60
2023-04-11T07:43:52.942Z,15.00
2023-04-11T07:46:54.552Z,14.10
2023-04-11T07:49:56.230Z,14.20
2023-04-11T07:52:58.069Z,13.90
2023-04-11T07:55:59.902Z,14.50
2023-04-11T07:59:01.531Z,15.10
2023-04-11T08:02:04.871Z,14.90
2023-04-11T08:05:09.975Z,14.40
2023-04-11T08:08:11.823Z,13.90
2023-04-11T08:11:14.262Z,13.90
2023-04-11T08:14:16.001Z,14.20
2023-04-11T08:17:27.724Z,14.20
2023-04-11T08:20:30.614Z,13.80
2023-04-11T08:23:32.325Z,13.00
2023-04-11T08:26:33.936Z,13.50
2023-04-11T08:29:35.623Z,14.10
2023-04-11T08:32:38.160Z,14.50
2023-04-11T08:35:42.962Z,14.50
2023-04-11T08:38:45.002Z,15.00
2023-04-11T08:41:47.405Z,14.80
2023-04-11T08:45:05.073Z,14.70
2023-04-11T08:48:07.291Z,14.20
2023-04-11T08:51:09.013Z,13.60
2023-04-11T08:54:10.996Z,13.20
2023-04-11T08:57:26.412Z,13.10
2023-04-11T09:00:29.099Z,14.10
2023-04-11T09:03:51.179Z,15.20
2023-04-11T09:07:00.447Z,15.20
2023-04-11T09:10:19.728Z,15.20
2023-04-11T09:13:22.682Z,14.50
2023-04-11T09:16:25.038Z,15.10
2023-04-11T09:19:28.799Z,15.10
2023-04-11T09:22:36.383Z,14.40
2023-04-11T09:25:44.673Z,13.80
2023-04-11T09:28:53.503Z,13.50
2023-04-11T09:31:55.605Z,12.90
2023-04-11T09:35:18.648Z,13.70
2023-04-11T09:38:34.252Z,13.60
2023-04-11T09:41:38.801Z,14.00
2023-04-11T09:44:40.480Z,14.00
2023-04-11T09:47:44.598Z,13.90
2023-04-11T09:50:49.593Z,14.30
2023-04-11T09:53:52.107Z,14.90
2023-04-11T09:56:53.951Z,15.20
2023-04-11T09:59:56.333Z,14.60
2023-04-11T10:02:58.571Z,14.90
2023-04-11T10:06:02.801Z,15.50
2023-04-11T10:09:12.852Z,14.50
2023-04-11T10:12:33.336Z,13.90
2023-04-11T10:15:34.983Z,13.90
2023-04-11T10:18:37.360Z,14.20
2023-04-11T10:21:42.596Z,14.20
2023-04-11T10:25:04.119Z,14.80
2023-04-11T10:28:06.080Z,14.50
2023-04-11T10:31:12.913Z,15.00
2023-04-11T10:34:14.827Z,15.20
2023-04-11T10:37:17.833Z,15.00
2023-04-11T10:40:20.710Z,14.50
2023-04-11T10:43:22.534Z,14.80
2023-04-11T10:46:27.461Z,15.10
2023-04-11T10:49:39.987Z,15.40
2023-04-11T10:52:41.792Z,14.80
2023-04-11T10:55:48.623Z,14.90
2023-04-11T10:58:51.815Z,15.60
2023-04-11T11:01:56.546Z,15.70
2023-04-11T11:04:59.617Z,15.00
2023-04-11T11:08:01.310Z,14.10
2023-04-11T11:11:04.719Z,13.50
2023-04-11T11:14:06.357Z,13.50
2023-04-11T11:17:08.941Z,14.00
2023-04-11T11:20:19.663Z,14.00
2023-04-11T11:23:21.270Z,14.00
2023-04-11T11:26:24.706Z,13.90
2023-04-11T11:29:37.692Z,14.30
2023-04-11T11:32:39.305Z,15.10
2023-04-11T11:35:41.063Z,16.40
2023-04-11T11:38:42.822Z,16.90
2023-04-11T11:41:44.682Z,16.70
2023-04-11T11:44:46.541Z,16.20
2023-04-11T11:47:49.846Z,15.60
2023-04-11T11:50:58.228Z,15.10
2023-04-11T11:54:10.460Z,14.80
2023-04-11T11:57:12.260Z,15.30
2023-04-11T12:00:14.923Z,15.10
2023-04-11T12:03:21.091Z,14.90
2023-04-11T12:06:23.134Z,14.70
2023-04-11T12:09:31.831Z,14.70
2023-04-11T12:12:36.191Z,14.70
2023-04-11T12:15:38.146Z,14.70
2023-04-11T12:18:42.044Z,14.60
2023-04-11T12:21:43.657Z,14.70
2023-04-11T12:24:45.747Z,14.60
2023-04-11T12:27:48.420Z,14.70
2023-04-11T12:30:50.059Z,14.60
2023-04-11T12:33:51.770Z,14.60
2023-04-11T12:36:53.642Z,14.60
2023-04-11T12:39:55.507Z,14.20
2023-04-11T12:42:57.659Z,13.90
2023-04-11T12:45:59.429Z,14.20
2023-04-11T12:49:01.126Z,14.40
2023-04-11T12:52:03.044Z,14.30
2023-04-11T12:55:05.697Z,14.10
2023-04-11T12:58:09.356Z,14.40
2023-04-11T13:01:11.275Z,14.30
2023-04-11T13:04:13.457Z,14.50
2023-04-11T13:07:15.349Z,14.50
2023-04-11T13:10:17.063Z,13.90
2023-04-11T13:13:19.003Z,14.10
2023-04-11T13:16:21.187Z,14.50
2023-04-11T13:19:23.619Z,14.90
2023-04-11T13:22:26.349Z,14.60
2023-04-11T13:25:27.975Z,14.40
2023-04-11T13:28:29.838Z,14.40
2023-04-11T13:31:32.041Z,14.20
2023-04-11T13:34:34.515Z,14.00
2023-04-11T13:37:36.145Z,13.90
2023-04-11T13:40:39.410Z,13.60
2023-04-11T13:43:41.260Z,13.80
2023-04-11T13:46:43.208Z,13.80
2023-04-11T13:49:44.887Z,13.70
2023-04-11T13:52:46.703Z,14.00
2023-04-11T13:55:51.334Z,14.00
2023-04-11T13:58:53.137Z,14.20
2023-04-11T14:01:54.856Z,14.20
2023-04-11T14:04:56.505Z,14.30
2023-04-11T14:07:58.292Z,14.00
2023-04-11T14:11:00.193Z,14.20
2023-04-11T14:14:01.910Z,13.80
2023-04-11T14:17:03.680Z,14.00
2023-04-11T14:20:06.985Z,14.30
2023-04-11T14:23:10.478Z,14.50
2023-04-11T14:26:12.166Z,14.10
2023-04-11T14:29:13.788Z,13.80
2023-04-11T14:32:15.575Z,13.80
2023-04-11T14:35:17.394Z,13.80
2023-04-11T14:38:19.069Z,13.90
2023-04-11T14:41:20.898Z,13.70
2023-04-11T14:44:22.499Z,13.50
2023-04-11T14:47:24.229Z,13.50
2023-04-11T14:50:28.889Z,13.40
2023-04-11T14:53:31.304Z,13.50
2023-04-11T14:56:32.925Z,13.50
2023-04-11T14:59:34.579Z,13.50
2023-04-11T15:02:36.381Z,13.30
2023-04-11T15:05:38.302Z,13.40
2023-04-11T15:08:40.502Z,13.50
2023-04-11T15:11:42.254Z,13.40
2023-04-11T15:14:44.115Z,13.60
2023-04-11T15:17:48.172Z,13.60
2023-04-11T15:20:50.418Z,13.40
2023-04-11T15:23:52.091Z,13.50
2023-04-11T15:26:53.751Z,13.50
2023-04-11T15:29:59.157Z,13.70
2023-04-11T15:33:00.842Z,13.70
2023-04-11T15:36:03.077Z,13.90
2023-04-11T15:39:05.281Z,14.00
2023-04-11T15:42:07.164Z,14.10
2023-04-11T15:45:09.316Z,14.00
2023-04-11T15:48:14.318Z,14.00
2023-04-11T15:51:17.150Z,14.00
2023-04-11T15:54:18.976Z,13.90
2023-04-11T15:57:20.959Z,13.80
